Time;durP1;ratioP1;P1;durP2;ratioP2;P2;SDS_P1;SDS_P2;PMS_P1;PMS_P2;Temp;Humidity;BMP_temperature;BMP_pressure;BME280_temperature;BME280_humidity;BME280_pressure;Samples;Min_cycle;Max_cycle;Signal;HPM_P1;HPM_P2
2023/11/14 00:00:32;;;;;;;7.30;1.80;;;14.10;99.90;;;;;;5091752;28;20200;-56
2023/11/14 00:03:01;;;;;;;6.37;2.40;;;14.20;99.90;;;;;;5091147;28;20228;-57
2023/11/14 00:05:29;;;;;;;6.97;2.17;;;14.30;99.90;;;;;;5091313;28;20208;-57
2023/11/14 00:07:55;;;;;;;10.37;2.30;;;14.20;99.90;;;;;;5091140;28;20204;-57
2023/11/14 00:10:22;;;;;;;8.30;2.03;;;14.20;99.90;;;;;;5091146;28;20224;-58
2023/11/14 00:12:49;;;;;;;8.10;2.17;;;14.20;99.90;;;;;;5091409;28;20253;-59
2023/11/14 00:15:18;;;;;;;8.47;2.63;;;14.30;99.90;;;;;;5090924;28;20235;-59
2023/11/14 00:17:45;;;;;;;6.53;2.33;;;14.30;99.90;;;;;;5091511;28;20207;-59
2023/11/14 00:20:13;;;;;;;6.80;1.53;;;14.30;99.90;;;;;;5091602;28;20210;-58
2023/11/14 00:22:40;;;;;;;9.27;2.30;;;14.30;99.90;;;;;;5091163;28;20231;-59
2023/11/14 00:25:07;;;;;;;8.70;2.47;;;14.40;99.90;;;;;;5090988;28;20215;-57
2023/11/14 00:27:34;;;;;;;9.27;2.27;;;14.40;99.90;;;;;;5091377;28;20200;-57
2023/11/14 00:30:00;;;;;;;11.50;2.40;;;14.30;99.90;;;;;;5091085;28;20206;-58
2023/11/14 00:32:28;;;;;;;7.20;2.00;;;14.30;99.90;;;;;;5091404;28;20641;-58
2023/11/14 00:34:55;;;;;;;8.23;2.00;;;14.20;99.90;;;;;;5090771;28;20261;-59
2023/11/14 00:37:23;;;;;;;6.60;1.70;;;14.20;99.90;;;;;;5091101;28;20204;-58
2023/11/14 00:39:49;;;;;;;8.33;2.57;;;14.20;99.90;;;;;;5091296;28;20204;-59
2023/11/14 00:42:16;;;;;;;9.97;2.33;;;14.20;99.90;;;;;;5091075;28;20200;-59
2023/11/14 00:44:43;;;;;;;10.10;2.20;;;14.30;99.90;;;;;;5091046;28;20228;-57
2023/11/14 00:47:11;;;;;;;6.83;2.00;;;14.20;99.90;;;;;;5090833;28;20230;-57
2023/11/14 00:49:37;;;;;;;7.57;2.37;;;14.20;99.90;;;;;;5091007;28;20250;-59
2023/11/14 00:52:04;;;;;;;8.23;2.03;;;14.00;99.90;;;;;;5091054;28;20224;-58
2023/11/14 00:54:33;;;;;;;8.10;2.30;;;13.80;99.90;;;;;;5090780;28;20307;-59
2023/11/14 00:56:59;;;;;;;9.63;2.37;;;13.70;99.90;;;;;;5091134;28;20293;-57
2023/11/14 00:59:26;;;;;;;7.87;2.30;;;13.60;99.90;;;;;;5091237;28;20204;-58
2023/11/14 01:01:54;;;;;;;8.77;2.77;;;13.50;99.90;;;;;;5091013;28;20243;-58
2023/11/14 01:04:21;;;;;;;8.57;2.17;;;13.40;99.90;;;;;;5074730;28;20248;-58
2023/11/14 01:06:48;;;;;;;5.60;1.63;;;13.30;99.90;;;;;;5091328;28;20201;-59
2023/11/14 01:09:15;;;;;;;11.67;3.30;;;13.20;99.90;;;;;;5090603;28;20704;-58
2023/11/14 01:11:43;;;;;;;10.23;3.13;;;13.20;99.90;;;;;;5091325;28;20224;-58
2023/11/14 01:14:10;;;;;;;12.30;2.50;;;13.10;99.90;;;;;;5091860;28;20315;-58
2023/11/14 01:16:36;;;;;;;8.53;2.23;;;13.00;99.90;;;;;;5095060;28;20302;-58
2023/11/14 01:19:03;;;;;;;5.20;2.00;;;12.90;99.90;;;;;;5094891;28;20226;-58
2023/11/14 01:21:31;;;;;;;6.43;2.20;;;12.80;99.90;;;;;;5095141;28;20224;-58
2023/11/14 01:23:58;;;;;;;7.20;2.27;;;12.80;99.90;;;;;;5094133;28;20224;-58
2023/11/14 01:26:24;;;;;;;8.63;2.57;;;12.70;99.90;;;;;;5094718;28;20202;-58
2023/11/14 01:28:53;;;;;;;8.47;2.00;;;12.70;99.90;;;;;;5094662;28;20246;-58
2023/11/14 01:31:21;;;;;;;7.97;2.00;;;12.70;99.90;;;;;;5094607;28;20224;-58
2023/11/14 01:33:47;;;;;;;11.83;2.50;;;12.80;99.90;;;;;;5094535;28;20240;-58
2023/11/14 01:36:14;;;;;;;7.90;2.10;;;12.80;99.90;;;;;;5094640;28;20212;-58
2023/11/14 01:38:41;;;;;;;7.43;2.17;;;12.90;99.90;;;;;;5095473;28;20215;-59
2023/11/14 01:41:07;;;;;;;8.27;1.70;;;12.90;99.90;;;;;;5094467;28;20208;-58
2023/11/14 01:43:42;;;;;;;11.00;2.43;;;12.90;99.90;;;;;;5093981;28;20226;-59
2023/11/14 01:46:10;;;;;;;8.40;1.63;;;12.80;99.90;;;;;;5094257;28;20208;-57
2023/11/14 01:48:37;;;;;;;9.00;2.47;;;12.60;99.90;;;;;;5094240;28;20199;-58
2023/11/14 01:51:04;;;;;;;12.33;2.23;;;12.50;99.90;;;;;;5094118;28;20224;-57
2023/11/14 01:53:31;;;;;;;8.13;1.63;;;12.50;99.90;;;;;;5093932;28;20224;-57
2023/11/14 01:55:58;;;;;;;7.80;2.60;;;12.50;99.90;;;;;;5093914;28;20231;-57
2023/11/14 01:58:24;;;;;;;10.47;2.40;;;12.40;99.90;;;;;;5093888;28;20200;-57
2023/11/14 02:00:51;;;;;;;6.93;1.97;;;12.40;99.90;;;;;;5093935;28;20212;-57
2023/11/14 02:03:20;;;;;;;7.33;2.33;;;12.40;99.90;;;;;;5093946;28;20220;-57
2023/11/14 02:05:47;;;;;;;5.67;1.83;;;12.40;99.90;;;;;;5093714;28;20200;-57
2023/11/14 02:08:16;;;;;;;8.83;2.17;;;12.40;99.90;;;;;;5093555;28;20212;-58
2023/11/14 02:10:43;;;;;;;6.67;1.90;;;12.40;99.90;;;;;;5093562;28;20207;-58
2023/11/14 02:13:09;;;;;;;5.43;2.10;;;12.40;99.90;;;;;;5093209;28;20226;-58
2023/11/14 02:15:36;;;;;;;5.97;2.20;;;12.40;99.90;;;;;;5093677;28;20644;-58
2023/11/14 02:18:03;;;;;;;5.80;2.13;;;12.40;99.90;;;;;;5093336;28;20599;-57
2023/11/14 02:20:31;;;;;;;8.00;2.50;;;12.40;99.90;;;;;;5093516;28;20196;-57
2023/11/14 02:23:00;;;;;;;5.77;2.20;;;12.40;99.90;;;;;;5093176;28;20224;-57
2023/11/14 02:25:29;;;;;;;10.23;2.57;;;12.30;99.90;;;;;;5092981;28;20196;-56
2023/11/14 02:27:55;;;;;;;6.70;1.90;;;12.30;99.90;;;;;;5093318;28;20208;-58
2023/11/14 02:30:23;;;;;;;23.43;11.13;;;12.30;99.90;;;;;;5093340;28;20212;-57
2023/11/14 02:32:49;;;;;;;27.87;11.67;;;12.20;99.90;;;;;;5093196;28;20228;-57
2023/11/14 02:35:16;;;;;;;13.77;6.70;;;12.20;99.90;;;;;;5093042;28;20211;-59
2023/11/14 02:37:44;;;;;;;14.37;5.23;;;12.20;99.90;;;;;;5093061;28;20204;-58
2023/11/14 02:40:13;;;;;;;9.03;3.20;;;12.20;99.90;;;;;;5092934;28;20201;-58
2023/11/14 02:42:42;;;;;;;10.43;2.80;;;12.20;99.90;;;;;;5093009;28;20284;-57
2023/11/14 02:45:09;;;;;;;13.97;3.10;;;12.20;99.90;;;;;;5092766;28;20208;-58
2023/11/14 02:47:36;;;;;;;13.60;2.40;;;12.20;99.90;;;;;;5093024;28;20204;-57
2023/11/14 02:50:10;;;;;;;9.17;2.20;;;12.20;99.90;;;;;;5092720;28;20227;-58
2023/11/14 02:52:38;;;;;;;6.80;1.93;;;12.20;99.90;;;;;;5092721;28;20220;-57
2023/11/14 02:55:05;;;;;;;8.00;2.07;;;12.10;99.90;;;;;;5092335;28;20212;-59
2023/11/14 02:57:32;;;;;;;9.30;2.13;;;12.10;99.90;;;;;;5092610;28;20209;-56
2023/11/14 03:00:00;;;;;;;10.53;2.07;;;12.10;99.90;;;;;;5092604;28;20265;-56
2023/11/14 03:02:27;;;;;;;6.03;2.37;;;12.10;99.90;;;;;;5092653;28;20196;-57
2023/11/14 03:04:53;;;;;;;14.67;3.17;;;12.10;99.90;;;;;;5092257;28;20224;-57
2023/11/14 03:07:20;;;;;;;6.70;2.27;;;12.10;99.90;;;;;;5092472;28;20208;-56
2023/11/14 03:09:47;;;;;;;15.33;2.47;;;12.10;99.90;;;;;;5092486;28;20670;-57
2023/11/14 03:12:13;;;;;;;9.83;2.37;;;12.20;99.90;;;;;;5092621;28;20607;-57
2023/11/14 03:14:40;;;;;;;9.87;2.53;;;12.20;99.90;;;;;;5092272;28;20243;-57
2023/11/14 03:17:08;;;;;;;9.03;2.37;;;12.20;99.90;;;;;;5092152;28;20219;-57
2023/11/14 03:19:39;;;;;;;6.27;2.00;;;12.10;99.90;;;;;;5091929;28;20582;-57
2023/11/14 03:22:06;;;;;;;7.07;2.27;;;12.20;99.90;;;;;;5092191;28;20204;-58
2023/11/14 03:24:32;;;;;;;10.70;2.13;;;12.30;99.90;;;;;;5092137;28;20693;-57
2023/11/14 03:26:59;;;;;;;6.53;1.97;;;12.30;99.90;;;;;;5092136;28;20564;-57
2023/11/14 03:29:26;;;;;;;8.63;2.13;;;12.30;99.90;;;;;;5092155;28;20616;-57
2023/11/14 03:31:52;;;;;;;9.20;2.20;;;12.20;99.90;;;;;;5091861;28;20246;-58
2023/11/14 03:34:20;;;;;;;7.63;2.10;;;12.20;99.90;;;;;;5092084;28;20239;-58
2023/11/14 03:36:51;;;;;;;13.53;2.50;;;12.10;99.90;;;;;;5091359;28;20227;-58
2023/11/14 03:39:18;;;;;;;7.60;1.97;;;12.00;99.90;;;;;;5091932;28;20212;-58
2023/11/14 03:41:45;;;;;;;9.83;2.40;;;12.10;99.90;;;;;;5091886;28;20192;-57
2023/11/14 03:44:12;;;;;;;11.63;1.93;;;12.10;99.90;;;;;;5091444;28;20262;-58
2023/11/14 03:46:39;;;;;;;6.63;2.00;;;12.20;99.90;;;;;;5091848;28;20208;-57
2023/11/14 03:49:06;;;;;;;8.10;2.53;;;12.20;99.90;;;;;;5091527;28;20216;-57
2023/11/14 03:51:34;;;;;;;12.13;2.83;;;12.20;99.90;;;;;;5092106;28;20224;-57
2023/11/14 03:54:01;;;;;;;7.97;2.27;;;12.20;99.90;;;;;;5091450;28;20232;-58
2023/11/14 03:56:28;;;;;;;15.43;2.73;;;12.20;99.90;;;;;;5091831;28;20208;-58
2023/11/14 03:58:55;;;;;;;14.23;2.67;;;12.30;99.90;;;;;;5091488;28;20291;-58
2023/11/14 04:01:21;;;;;;;9.00;2.20;;;12.40;99.90;;;;;;5091413;28;20201;-56
2023/11/14 04:03:49;;;;;;;9.70;2.53;;;12.50;99.90;;;;;;5090966;28;20578;-57
2023/11/14 04:06:16;;;;;;;7.33;2.20;;;12.50;99.90;;;;;;5091479;28;20232;-57
2023/11/14 04:08:44;;;;;;;12.57;2.40;;;12.50;99.90;;;;;;5091233;28;20680;-60
2023/11/14 04:11:12;;;;;;;8.73;2.87;;;12.50;99.90;;;;;;5091286;28;20204;-58
2023/11/14 04:13:39;;;;;;;6.23;2.70;;;12.50;99.90;;;;;;5091125;28;20244;-58
2023/11/14 04:16:07;;;;;;;8.23;1.90;;;12.50;99.90;;;;;;5090963;28;20306;-58
2023/11/14 04:18:33;;;;;;;7.93;2.30;;;12.50;99.90;;;;;;5091548;28;20651;-58
2023/11/14 04:21:02;;;;;;;11.47;2.70;;;12.50;99.90;;;;;;5091163;28;20211;-57
2023/11/14 04:23:29;;;;;;;8.07;2.53;;;12.50;99.90;;;;;;5108452;22;20606;-58
2023/11/14 04:25:57;;;;;;;8.27;2.57;;;12.50;99.90;;;;;;5063135;28;20507;-58
2023/11/14 04:28:23;;;;;;;8.10;2.30;;;12.50;99.90;;;;;;5059694;28;20385;-58
2023/11/14 04:30:52;;;;;;;8.00;2.33;;;12.40;99.90;;;;;;5059224;28;20667;-57
2023/11/14 04:33:18;;;;;;;11.00;2.70;;;12.40;99.90;;;;;;5062812;28;20246;-57
2023/11/14 04:35:46;;;;;;;8.67;2.07;;;12.30;99.90;;;;;;5070947;28;20201;-57
2023/11/14 04:38:12;;;;;;;10.30;2.17;;;12.30;99.90;;;;;;5071071;28;20234;-57
2023/11/14 04:40:39;;;;;;;14.00;2.57;;;12.30;99.90;;;;;;5071039;28;20310;-57
2023/11/14 04:43:07;;;;;;;10.50;2.30;;;12.30;99.90;;;;;;5070701;28;20197;-58
2023/11/14 04:45:34;;;;;;;10.70;2.60;;;12.30;99.90;;;;;;5070807;28;20208;-57
2023/11/14 04:48:01;;;;;;;8.03;2.00;;;12.30;99.90;;;;;;5070994;28;20204;-57
2023/11/14 04:50:28;;;;;;;4.67;2.10;;;12.30;99.90;;;;;;5074301;28;20205;-58
2023/11/14 04:52:54;;;;;;;7.20;2.17;;;12.30;99.90;;;;;;5074992;28;20227;-57
2023/11/14 04:55:21;;;;;;;5.57;1.73;;;12.30;99.90;;;;;;5074752;28;20263;-58
2023/11/14 04:57:48;;;;;;;8.80;1.90;;;12.30;99.90;;;;;;5074881;28;20651;-57
2023/11/14 05:00:17;;;;;;;5.60;1.80;;;12.30;99.90;;;;;;5074670;28;20731;-58
2023/11/14 05:02:43;;;;;;;5.40;1.83;;;12.20;99.90;;;;;;5074758;28;20203;-58
2023/11/14 05:05:10;;;;;;;7.47;2.03;;;12.20;99.90;;;;;;5074798;28;20228;-57
2023/11/14 05:07:39;;;;;;;7.07;1.97;;;12.20;99.90;;;;;;5074876;28;20204;-57
2023/11/14 05:10:06;;;;;;;7.77;2.33;;;12.20;99.90;;;;;;5074532;28;20205;-58
2023/11/14 05:12:33;;;;;;;12.40;2.50;;;12.20;99.90;;;;;;5074393;28;20224;-59
2023/11/14 05:15:00;;;;;;;7.37;2.20;;;12.20;99.90;;;;;;5074597;28;20639;-57
2023/11/14 05:17:28;;;;;;;6.53;2.00;;;12.20;99.90;;;;;;5074762;28;20209;-58
2023/11/14 05:19:57;;;;;;;5.77;1.57;;;12.20;99.90;;;;;;5074607;28;20216;-58
2023/11/14 05:22:24;;;;;;;8.10;2.23;;;12.10;99.90;;;;;;5074380;28;20231;-58
2023/11/14 05:24:50;;;;;;;5.30;1.73;;;12.10;99.90;;;;;;5074069;28;20717;-58
2023/11/14 05:27:17;;;;;;;6.67;1.53;;;12.10;99.90;;;;;;5074272;28;20678;-58
2023/11/14 05:29:44;;;;;;;7.80;2.03;;;12.10;99.90;;;;;;5074682;28;20239;-58
2023/11/14 05:32:11;;;;;;;8.80;2.23;;;12.10;99.90;;;;;;5074316;28;20220;-58
2023/11/14 05:34:39;;;;;;;6.67;2.07;;;12.10;99.90;;;;;;5073932;28;20596;-58
2023/11/14 05:37:07;;;;;;;11.93;2.73;;;12.10;99.90;;;;;;5074443;28;20216;-58
2023/11/14 05:39:34;;;;;;;10.70;3.40;;;12.00;99.90;;;;;;5074626;28;20205;-58
2023/11/14 05:42:01;;;;;;;9.70;2.40;;;12.10;99.90;;;;;;5074182;28;20685;-58
2023/11/14 05:44:28;;;;;;;7.70;2.57;;;12.10;99.90;;;;;;5073558;28;20732;-58
2023/11/14 05:46:55;;;;;;;9.73;2.40;;;12.10;99.90;;;;;;5074137;28;20212;-58
2023/11/14 05:49:22;;;;;;;10.87;3.33;;;12.20;99.90;;;;;;5074369;28;20240;-58
2023/11/14 05:51:50;;;;;;;8.47;2.63;;;12.20;99.90;;;;;;5073845;28;20204;-58
2023/11/14 05:54:17;;;;;;;7.87;2.33;;;12.20;99.90;;;;;;5073473;28;20232;-58
2023/11/14 05:56:44;;;;;;;7.83;2.20;;;12.20;99.90;;;;;;5073652;28;20670;-58
2023/11/14 05:59:11;;;;;;;8.57;2.23;;;12.20;99.90;;;;;;5073419;28;20607;-58
2023/11/14 06:01:37;;;;;;;6.57;1.90;;;12.20;99.90;;;;;;5073266;28;20235;-58
2023/11/14 06:04:04;;;;;;;9.57;2.50;;;12.20;99.90;;;;;;5073382;28;20225;-58
2023/11/14 06:06:31;;;;;;;7.17;1.97;;;12.20;99.90;;;;;;5073573;28;20201;-57
2023/11/14 06:08:59;;;;;;;8.97;3.00;;;12.20;99.90;;;;;;5073243;28;20296;-58
2023/11/14 06:11:27;;;;;;;9.47;4.60;;;12.20;99.90;;;;;;5073335;28;20223;-58
2023/11/14 06:13:53;;;;;;;5.90;2.10;;;12.30;99.90;;;;;;5073420;28;20531;-58
2023/11/14 06:16:20;;;;;;;6.13;2.40;;;12.30;99.90;;;;;;5073294;28;20212;-58
2023/11/14 06:18:47;;;;;;;8.20;2.47;;;12.30;99.90;;;;;;5073277;28;20669;-58
2023/11/14 06:21:13;;;;;;;8.77;2.67;;;12.30;99.90;;;;;;5073017;28;20505;-58
2023/11/14 06:23:40;;;;;;;9.00;2.50;;;12.40;99.90;;;;;;5073108;28;20235;-57
2023/11/14 06:26:08;;;;;;;7.43;2.07;;;12.40;99.90;;;;;;5073277;28;20673;-57
2023/11/14 06:28:35;;;;;;;9.77;2.50;;;12.50;99.90;;;;;;5073303;28;20196;-58
2023/11/14 06:31:02;;;;;;;10.83;2.37;;;12.50;99.90;;;;;;5073393;28;20209;-57
2023/11/14 06:33:32;;;;;;;9.23;2.50;;;12.50;99.90;;;;;;5072721;28;20225;-57
2023/11/14 06:35:59;;;;;;;8.30;2.80;;;12.40;99.90;;;;;;5073183;28;20205;-57
2023/11/14 06:38:25;;;;;;;10.67;2.30;;;12.40;99.90;;;;;;5073190;28;20205;-58
2023/11/14 06:40:52;;;;;;;10.87;2.90;;;12.30;99.90;;;;;;5073337;28;20208;-57
2023/11/14 06:43:20;;;;;;;13.43;3.73;;;12.40;99.90;;;;;;5072721;28;20247;-57
2023/11/14 06:45:47;;;;;;;8.33;2.80;;;12.40;99.90;;;;;;5072934;28;20258;-57
2023/11/14 06:48:13;;;;;;;7.73;2.93;;;12.40;99.90;;;;;;5072495;28;20606;-57
2023/11/14 06:50:40;;;;;;;7.53;2.17;;;12.40;99.90;;;;;;5072920;28;20205;-57
2023/11/14 06:53:08;;;;;;;7.33;2.40;;;12.40;99.90;;;;;;5072571;28;20296;-57
2023/11/14 06:55:34;;;;;;;11.80;2.20;;;12.40;99.90;;;;;;5072507;28;20201;-57
2023/11/14 06:58:01;;;;;;;8.87;2.47;;;12.40;99.90;;;;;;5072996;28;20255;-57
2023/11/14 07:00:30;;;;;;;10.27;3.23;;;12.50;99.90;;;;;;5072506;28;20231;-57
2023/11/14 07:02:57;;;;;;;8.67;2.40;;;12.50;99.90;;;;;;5072324;28;20227;-57
2023/11/14 07:05:25;;;;;;;10.10;2.40;;;12.60;99.90;;;;;;5072233;28;20215;-57
2023/11/14 07:07:54;;;;;;;9.80;2.77;;;12.60;99.90;;;;;;5072493;28;20228;-57
2023/11/14 07:10:21;;;;;;;6.47;2.10;;;12.70;99.90;;;;;;5072183;28;20258;-57
2023/11/14 07:12:48;;;;;;;7.53;2.80;;;12.70;99.90;;;;;;5071442;28;20862;-58
2023/11/14 07:15:17;;;;;;;11.07;2.60;;;12.80;99.90;;;;;;5071825;28;20696;-57
2023/11/14 07:17:46;;;;;;;10.57;3.20;;;12.80;99.90;;;;;;5072247;28;20201;-57
2023/11/14 07:20:13;;;;;;;6.13;2.33;;;12.90;99.90;;;;;;5072249;28;20225;-57
2023/11/14 07:22:40;;;;;;;9.27;2.63;;;13.10;99.90;;;;;;5072161;28;20197;-57
2023/11/14 07:25:09;;;;;;;7.37;2.80;;;13.20;99.90;;;;;;5071659;28;20237;-57
2023/11/14 07:27:38;;;;;;;8.60;2.87;;;13.30;99.90;;;;;;5071729;28;20693;-57
2023/11/14 07:30:06;;;;;;;5.93;2.47;;;13.50;99.90;;;;;;5071770;28;20208;-57
2023/11/14 07:32:33;;;;;;;10.17;2.97;;;13.60;99.90;;;;;;5056037;28;20201;-57
2023/11/14 07:35:01;;;;;;;7.93;2.70;;;13.70;99.90;;;;;;5071763;28;20225;-58
2023/11/14 07:37:28;;;;;;;22.67;4.40;;;13.80;99.90;;;;;;5071840;28;20208;-57
2023/11/14 07:39:55;;;;;;;41.83;5.63;;;13.90;99.90;;;;;;5071827;28;20236;-61
2023/11/14 07:42:23;;;;;;;9.50;3.43;;;14.10;99.90;;;;;;5071559;28;20233;-57
2023/11/14 07:44:50;;;;;;;8.20;3.23;;;14.10;99.90;;;;;;5071398;28;20221;-56
2023/11/14 07:47:17;;;;;;;11.73;3.00;;;14.20;99.90;;;;;;5071606;28;20701;-57
2023/11/14 07:49:43;;;;;;;11.57;4.43;;;14.10;99.90;;;;;;5071550;28;20384;-57
2023/11/14 07:52:11;;;;;;;8.80;2.50;;;14.10;99.90;;;;;;5072087;28;20200;-57
2023/11/14 07:54:38;;;;;;;14.33;7.27;;;14.10;99.90;;;;;;5071378;28;20228;-57
2023/11/14 07:57:05;;;;;;;11.73;4.27;;;14.10;99.90;;;;;;5071174;28;20209;-56
2023/11/14 07:59:32;;;;;;;6.70;1.90;;;14.00;99.90;;;;;;5071571;28;20274;-56
2023/11/14 08:01:58;;;;;;;5.03;1.33;;;14.10;99.90;;;;;;5071430;28;20205;-57
2023/11/14 08:04:25;;;;;;;25.17;3.53;;;14.10;99.90;;;;;;5071404;28;20239;-57
2023/11/14 08:06:52;;;;;;;8.80;1.90;;;14.10;99.90;;;;;;5071569;28;20216;-57
2023/11/14 08:09:20;;;;;;;5.13;1.50;;;14.10;99.90;;;;;;5071385;28;20591;-56
2023/11/14 08:11:47;;;;;;;15.43;2.90;;;14.20;99.90;;;;;;5071525;28;20288;-57
2023/11/14 08:14:13;;;;;;;14.23;2.57;;;14.20;99.90;;;;;;5071157;28;20229;-56
2023/11/14 08:16:40;;;;;;;3.53;1.50;;;14.30;99.90;;;;;;5071234;28;20617;-57
2023/11/14 08:19:07;;;;;;;6.63;1.57;;;14.40;99.90;;;;;;5071466;28;20209;-57
2023/11/14 08:21:34;;;;;;;5.00;1.73;;;14.50;99.90;;;;;;5055202;28;20674;-56
2023/11/14 08:24:00;;;;;;;5.77;1.90;;;14.50;99.90;;;;;;5070619;28;20235;-57
2023/11/14 08:26:29;;;;;;;3.37;1.17;;;14.50;99.90;;;;;;5071070;28;20208;-57
2023/11/14 08:28:56;;;;;;;6.20;1.27;;;14.60;99.90;;;;;;5071208;28;20304;-57
2023/11/14 08:31:23;;;;;;;4.30;1.53;;;14.50;99.90;;;;;;5071051;28;20716;-57
2023/11/14 08:33:49;;;;;;;10.67;1.70;;;14.60;99.90;;;;;;5070968;28;20279;-59
2023/11/14 08:36:16;;;;;;;7.47;1.67;;;14.60;99.90;;;;;;5071038;28;20283;-58
2023/11/14 08:38:43;;;;;;;5.60;1.30;;;14.70;99.90;;;;;;5071050;28;20200;-58
2023/11/14 08:41:09;;;;;;;5.53;1.50;;;14.60;99.90;;;;;;5071403;28;20201;-57
2023/11/14 08:43:40;;;;;;;5.43;1.57;;;14.60;99.90;;;;;;5063384;28;20225;-56
2023/11/14 08:46:07;;;;;;;3.87;1.30;;;14.50;99.90;;;;;;5071168;28;20205;-57
2023/11/14 08:48:34;;;;;;;2.73;1.10;;;14.40;99.90;;;;;;5054436;28;20205;-57
2023/11/14 08:51:01;;;;;;;2.30;1.27;;;14.50;99.90;;;;;;5071008;28;20209;-58
2023/11/14 08:53:28;;;;;;;3.23;0.83;;;14.60;99.90;;;;;;5070548;28;20233;-57
2023/11/14 08:55:55;;;;;;;2.73;1.00;;;14.60;99.90;;;;;;5071129;28;20212;-57
2023/11/14 08:58:22;;;;;;;4.70;1.20;;;14.70;99.90;;;;;;5070699;28;20215;-57
2023/11/14 09:00:51;;;;;;;3.77;1.10;;;14.80;99.90;;;;;;5071331;28;20201;-56
2023/11/14 09:03:18;;;;;;;3.00;1.03;;;14.80;99.90;;;;;;5070826;28;20252;-57
2023/11/14 09:05:45;;;;;;;4.83;1.23;;;14.80;99.90;;;;;;5071154;28;20197;-57
2023/11/14 09:08:11;;;;;;;5.00;1.20;;;14.80;99.90;;;;;;5071723;28;20211;-57
2023/11/14 09:10:38;;;;;;;1.53;0.80;;;14.70;99.90;;;;;;5071704;28;20212;-56
2023/11/14 09:13:05;;;;;;;2.13;1.20;;;14.80;99.90;;;;;;5070942;28;20229;-57
2023/11/14 09:15:32;;;;;;;2.73;0.93;;;14.70;99.90;;;;;;5070577;28;20204;-57
2023/11/14 09:18:00;;;;;;;4.53;1.17;;;14.70;99.90;;;;;;5071140;28;20220;-57
2023/11/14 09:20:26;;;;;;;2.27;0.77;;;14.70;99.90;;;;;;5070413;28;20583;-57
2023/11/14 09:22:54;;;;;;;3.73;0.90;;;14.60;99.90;;;;;;5070924;28;20232;-55
2023/11/14 09:25:20;;;;;;;6.40;1.40;;;14.50;99.90;;;;;;5070413;28;20220;-56
2023/11/14 09:27:47;;;;;;;4.57;1.10;;;14.50;99.90;;;;;;5070333;28;20673;-57
2023/11/14 09:30:15;;;;;;;3.97;1.27;;;14.50;99.90;;;;;;5070713;28;20216;-57
2023/11/14 09:32:41;;;;;;;2.20;0.90;;;14.60;99.90;;;;;;5070737;28;20275;-57
2023/11/14 09:35:10;;;;;;;1.80;0.80;;;14.60;99.90;;;;;;5071182;28;20239;-57
2023/11/14 09:37:37;;;;;;;1.77;0.77;;;14.60;99.90;;;;;;5074367;28;20240;-57
2023/11/14 09:40:04;;;;;;;3.37;0.83;;;14.60;99.90;;;;;;5074584;28;20212;-57
2023/11/14 09:42:31;;;;;;;2.20;0.97;;;14.70;99.90;;;;;;5074301;28;20225;-57
2023/11/14 09:44:58;;;;;;;5.23;1.10;;;14.60;99.90;;;;;;5074192;28;20217;-60
2023/11/14 09:47:26;;;;;;;3.00;0.77;;;14.70;99.90;;;;;;5073935;28;20205;-57
2023/11/14 09:49:53;;;;;;;2.60;1.10;;;14.70;99.90;;;;;;5073484;28;20236;-57
2023/11/14 09:52:21;;;;;;;4.70;1.60;;;14.80;99.90;;;;;;5074128;28;20212;-57
2023/11/14 09:54:48;;;;;;;3.60;1.10;;;14.70;99.90;;;;;;5073358;28;20690;-57
2023/11/14 09:57:18;;;;;;;3.97;1.10;;;14.70;99.90;;;;;;5073852;28;20213;-57
2023/11/14 09:59:45;;;;;;;5.00;1.70;;;14.80;99.90;;;;;;5073776;28;20205;-57
2023/11/14 10:02:12;;;;;;;2.43;1.10;;;14.70;99.90;;;;;;5073341;28;20205;-57
2023/11/14 10:04:40;;;;;;;3.00;0.97;;;14.70;99.90;;;;;;5073275;28;20216;-57
2023/11/14 10:07:08;;;;;;;2.37;1.00;;;14.70;99.90;;;;;;5073608;28;20236;-56
2023/11/14 10:09:37;;;;;;;5.57;1.20;;;14.70;99.90;;;;;;5073268;28;20205;-57
2023/11/14 10:12:05;;;;;;;4.53;1.03;;;14.60;99.90;;;;;;5073661;28;20278;-56
2023/11/14 10:14:44;;;;;;;2.30;0.90;;;14.60;99.90;;;;;;5072839;28;20255;-56
2023/11/14 10:17:12;;;;;;;3.67;0.97;;;14.60;99.90;;;;;;5073833;28;20205;-56
2023/11/14 10:19:56;;;;;;;1.40;0.87;;;14.50;99.90;;;;;;5058367;28;20197;-56
2023/11/14 10:22:23;;;;;;;60.70;7.37;;;14.50;99.90;;;;;;5073804;28;20632;-56
2023/11/14 10:24:52;;;;;;;7.77;1.50;;;14.50;99.90;;;;;;5119908;22;20224;-57
2023/11/14 10:27:26;;;;;;;5.63;1.17;;;14.50;99.90;;;;;;5102581;28;20211;-57
2023/11/14 10:29:54;;;;;;;4.27;1.07;;;14.60;99.90;;;;;;5105544;28;20234;-57
2023/11/14 10:32:22;;;;;;;1.13;0.90;;;14.50;99.90;;;;;;5103556;28;20729;-57
2023/11/14 10:34:49;;;;;;;21.13;2.37;;;14.60;99.90;;;;;;5093372;28;20224;-57
2023/11/14 10:37:29;;;;;;;4.10;1.20;;;14.50;99.90;;;;;;5092654;28;20211;-57
2023/11/14 10:39:57;;;;;;;3.50;1.30;;;14.60;99.90;;;;;;5092859;28;20204;-59
2023/11/14 10:42:24;;;;;;;3.37;1.07;;;14.70;99.90;;;;;;5093083;28;20200;-58
2023/11/14 10:45:01;;;;;;;5.50;2.80;;;14.80;99.90;;;;;;5093052;28;20219;-57
2023/11/14 10:47:39;;;;;;;2.27;1.30;;;14.80;99.90;;;;;;5092916;28;20204;-56
2023/11/14 10:50:06;;;;;;;4.67;1.23;;;14.90;99.90;;;;;;5092311;28;20214;-57
2023/11/14 10:52:36;;;;;;;6.83;1.63;;;14.90;99.90;;;;;;5092896;28;20540;-57
2023/11/14 10:55:05;;;;;;;4.97;2.00;;;14.90;99.90;;;;;;5092566;28;20228;-57
2023/11/14 10:57:33;;;;;;;27.93;3.90;;;15.00;99.90;;;;;;5092395;28;20665;-57
2023/11/14 11:00:01;;;;;;;5.27;1.80;;;15.10;99.90;;;;;;5092574;28;20630;-57
2023/11/14 11:02:33;;;;;;;7.03;3.50;;;15.10;99.90;;;;;;5091787;28;20219;-56
2023/11/14 11:05:04;;;;;;;4.23;1.63;;;15.10;99.90;;;;;;5092621;28;20224;-57
2023/11/14 11:07:30;;;;;;;3.17;0.77;;;15.10;99.90;;;;;;5092629;28;20208;-56
2023/11/14 11:09:57;;;;;;;3.83;0.90;;;15.10;99.90;;;;;;5092523;28;20212;-56
2023/11/14 11:12:28;;;;;;;2.87;0.80;;;15.20;99.90;;;;;;5092296;28;20205;-56
2023/11/14 11:14:55;;;;;;;2.10;1.17;;;15.30;99.90;;;;;;5091399;28;20698;-57
2023/11/14 11:17:39;;;;;;;3.80;1.00;;;15.30;99.90;;;;;;5092095;28;20677;-57
2023/11/14 11:20:08;;;;;;;2.60;0.97;;;15.20;99.90;;;;;;5092320;28;20204;-57
2023/11/14 11:23:08;;;;;;;4.43;1.20;;;15.20;99.90;;;;;;5092017;28;20654;-57
2023/11/14 11:25:35;;;;;;;4.50;1.50;;;15.30;99.90;;;;;;5091974;28;20197;-57
2023/11/14 11:28:32;;;;;;;4.28;1.10;;;15.30;99.90;;;;;;5091974;28;20215;-57
2023/11/14 11:31:11;;;;;;;4.00;1.13;;;15.50;99.90;;;;;;5081517;28;20232;-57
2023/11/14 11:33:39;;;;;;;3.10;1.20;;;15.50;99.90;;;;;;5091520;28;20307;-56
2023/11/14 11:36:29;;;;;;;4.17;1.23;;;15.50;99.90;;;;;;5092122;28;20208;-57
2023/11/14 11:38:57;;;;;;;2.00;1.15;;;15.60;99.90;;;;;;5079800;28;20214;-57
2023/11/14 11:41:25;;;;;;;2.97;1.10;;;15.60;99.90;;;;;;5091890;28;20678;-56
2023/11/14 11:44:06;;;;;;;3.13;0.80;;;15.40;99.90;;;;;;5091669;28;20231;-57
2023/11/14 11:46:43;;;;;;;3.83;1.20;;;15.50;99.90;;;;;;5091912;28;20204;-57
2023/11/14 11:49:31;;;;;;;3.20;1.20;;;15.40;99.90;;;;;;5091690;28;20204;-57
2023/11/14 11:52:11;;;;;;;3.07;1.07;;;15.30;99.90;;;;;;5080391;28;20247;-57
2023/11/14 11:54:39;;;;;;;2.70;1.30;;;15.30;99.90;;;;;;5091268;28;20227;-58
2023/11/14 11:57:10;;;;;;;6.87;1.40;;;15.20;99.90;;;;;;5091770;28;20347;-56
2023/11/14 12:00:17;;;;;;;5.00;1.43;;;15.30;99.90;;;;;;5091424;28;20200;-60
2023/11/14 12:02:46;;;;;;;3.35;1.10;;;15.50;99.90;;;;;;5059887;28;20221;-56
2023/11/14 12:05:15;;;;;;;4.60;1.27;;;15.60;99.90;;;;;;5071119;28;20228;-58
2023/11/14 12:07:42;;;;;;;9.05;1.67;;;15.70;99.90;;;;;;5063899;28;20205;-61
2023/11/14 12:10:09;;;;;;;3.95;1.00;;;15.80;99.90;;;;;;5071135;28;20209;-59
2023/11/14 12:12:40;;;;;;;3.03;1.57;;;15.80;99.90;;;;;;5079361;28;20701;-58
2023/11/14 12:15:10;;;;;;;3.80;1.20;;;15.90;99.90;;;;;;5070284;28;20701;-61
2023/11/14 12:17:37;;;;;;;4.45;1.20;;;15.80;99.90;;;;;;5069662;28;20262;-58
2023/11/14 12:20:09;;;;;;;1.97;1.20;;;15.90;99.90;;;;;;5071246;28;20208;-60
2023/11/14 12:22:36;;;;;;;4.63;1.08;;;15.90;99.90;;;;;;5069018;28;20240;-60
2023/11/14 12:25:04;;;;;;;5.70;1.42;;;16.00;99.90;;;;;;5070527;28;20324;-60
2023/11/14 12:27:31;;;;;;;9.25;1.17;;;16.10;99.90;;;;;;5070380;28;20215;-59
2023/11/14 12:30:09;;;;;;;2.85;1.00;;;16.10;99.90;;;;;;5070404;28;20213;-60
2023/11/14 12:32:36;;;;;;;5.18;2.80;;;16.30;99.90;;;;;;5070522;28;20215;-60
2023/11/14 12:35:05;;;;;;;5.05;1.35;;;16.20;99.90;;;;;;5070483;28;20231;-60
2023/11/14 12:37:32;;;;;;;8.50;1.77;;;16.20;99.90;;;;;;5070894;28;20217;-58
2023/11/14 12:40:05;;;;;;;3.25;1.30;;;16.20;99.90;;;;;;5078794;28;20700;-59
2023/11/14 12:42:32;;;;;;;4.53;1.07;;;16.20;99.90;;;;;;5081352;28;20257;-58
2023/11/14 12:44:59;;;;;;;3.53;1.50;;;16.20;99.90;;;;;;5091096;28;20579;-58
2023/11/14 12:47:27;;;;;;;5.15;1.25;;;16.10;99.90;;;;;;5091027;28;20291;-58
2023/11/14 12:49:53;;;;;;;3.78;1.70;;;16.00;99.90;;;;;;5090958;28;20543;-57